sensor_id;sensor_type;location;lat;lon;timestamp;P1;P2;P0
62599;PMS7003;48671;48.922;2.346;2023-04-19T00:02:16;95.00;76.67;65.33
62599;PMS7003;48671;48.922;2.346;2023-04-19T00:04:42;92.00;72.33;61.33
62599;PMS7003;48671;48.922;2.346;2023-04-19T00:07:09;92.67;74.67;64.33
62599;PMS7003;48671;48.922;2.346;2023-04-19T00:09:34;91.00;71.67;60.67
62599;PMS7003;48671;48.922;2.346;2023-04-19T00:12:00;88.33;68.00;56.00
62599;PMS7003;48671;48.922;2.346;2023-04-19T00:14:26;87.67;65.00;52.33
62599;PMS7003;48671;48.922;2.346;2023-04-19T00:16:51;93.33;76.00;64.33
62599;PMS7003;48671;48.922;2.346;2023-04-19T00:19:16;87.33;63.33;53.67
62599;PMS7003;48671;48.922;2.346;2023-04-19T00:21:42;91.33;71.00;59.00
62599;PMS7003;48671;48.922;2.346;2023-04-19T00:24:07;90.00;67.33;55.67
62599;PMS7003;48671;48.922;2.346;2023-04-19T00:26:32;86.00;61.67;49.67
62599;PMS7003;48671;48.922;2.346;2023-04-19T00:28:58;83.33;60.00;45.33
62599;PMS7003;48671;48.922;2.346;2023-04-19T00:31:23;88.67;64.33;52.67
62599;PMS7003;48671;48.922;2.346;2023-04-19T00:33:48;87.67;66.33;54.00
62599;PMS7003;48671;48.922;2.346;2023-04-19T00:36:14;90.00;67.00;55.33
62599;PMS7003;48671;48.922;2.346;2023-04-19T00:38:39;86.67;62.00;48.67
62599;PMS7003;48671;48.922;2.346;2023-04-19T00:41:04;92.67;73.00;60.67
62599;PMS7003;48671;48.922;2.346;2023-04-19T00:43:30;87.00;63.00;53.33
62599;PMS7003;48671;48.922;2.346;2023-04-19T00:45:55;89.33;66.67;57.67
62599;PMS7003;48671;48.922;2.346;2023-04-19T00:48:20;87.00;64.33;55.33
62599;PMS7003;48671;48.922;2.346;2023-04-19T00:50:46;81.00;58.67;42.00
62599;PMS7003;48671;48.922;2.346;2023-04-19T00:53:11;91.33;68.33;58.33
62599;PMS7003;48671;48.922;2.346;2023-04-19T00:55:37;90.00;69.33;58.00
62599;PMS7003;48671;48.922;2.346;2023-04-19T00:58:04;88.33;66.00;54.33
62599;PMS7003;48671;48.922;2.346;2023-04-19T01:00:30;97.33;82.00;73.33
62599;PMS7003;48671;48.922;2.346;2023-04-19T01:02:56;90.00;64.67;56.00
62599;PMS7003;48671;48.922;2.346;2023-04-19T01:05:21;91.67;72.67;59.67
62599;PMS7003;48671;48.922;2.346;2023-04-19T01:07:47;91.33;71.00;61.33
62599;PMS7003;48671;48.922;2.346;2023-04-19T01:10:13;94.67;78.00;68.00
62599;PMS7003;48671;48.922;2.346;2023-04-19T01:12:38;88.67;62.67;54.00
62599;PMS7003;48671;48.922;2.346;2023-04-19T01:15:04;86.67;63.67;50.67
62599;PMS7003;48671;48.922;2.346;2023-04-19T01:17:30;86.67;64.33;53.00
62599;PMS7003;48671;48.922;2.346;2023-04-19T01:20:00;91.33;70.00;60.33
62599;PMS7003;48671;48.922;2.346;2023-04-19T01:22:26;90.33;69.00;61.00
62599;PMS7003;48671;48.922;2.346;2023-04-19T01:24:52;89.67;67.67;57.67
62599;PMS7003;48671;48.922;2.346;2023-04-19T01:27:17;85.33;61.00;48.00
62599;PMS7003;48671;48.922;2.346;2023-04-19T01:29:43;90.00;66.67;58.67
62599;PMS7003;48671;48.922;2.346;2023-04-19T01:32:09;90.00;70.67;61.33
62599;PMS7003;48671;48.922;2.346;2023-04-19T01:34:34;85.33;62.00;49.67
62599;PMS7003;48671;48.922;2.346;2023-04-19T01:37:00;87.67;65.33;57.33
62599;PMS7003;48671;48.922;2.346;2023-04-19T01:39:25;92.67;70.33;59.00
62599;PMS7003;48671;48.922;2.346;2023-04-19T01:41:51;93.67;71.33;61.33
62599;PMS7003;48671;48.922;2.346;2023-04-19T01:44:16;85.00;61.00;48.33
62599;PMS7003;48671;48.922;2.346;2023-04-19T01:46:42;86.67;64.33;53.00
62599;PMS7003;48671;48.922;2.346;2023-04-19T01:49:07;97.33;80.67;73.00
62599;PMS7003;48671;48.922;2.346;2023-04-19T01:51:33;87.67;64.33;54.33
62599;PMS7003;48671;48.922;2.346;2023-04-19T01:53:58;91.33;69.33;61.67
62599;PMS7003;48671;48.922;2.346;2023-04-19T01:56:25;89.00;63.67;54.33
62599;PMS7003;48671;48.922;2.346;2023-04-19T01:58:50;93.00;71.33;62.33
62599;PMS7003;48671;48.922;2.346;2023-04-19T02:01:16;91.33;70.00;59.33
62599;PMS7003;48671;48.922;2.346;2023-04-19T02:03:41;92.67;73.67;61.00
62599;PMS7003;48671;48.922;2.346;2023-04-19T02:06:10;96.00;80.33;69.67
62599;PMS7003;48671;48.922;2.346;2023-04-19T02:08:36;89.00;64.00;54.00
62599;PMS7003;48671;48.922;2.346;2023-04-19T02:11:05;92.33;68.67;58.00
62599;PMS7003;48671;48.922;2.346;2023-04-19T02:13:32;91.33;69.67;60.33
62599;PMS7003;48671;48.922;2.346;2023-04-19T02:15:58;88.00;64.67;56.33
62599;PMS7003;48671;48.922;2.346;2023-04-19T02:18:25;85.33;62.33;50.00
62599;PMS7003;48671;48.922;2.346;2023-04-19T02:20:50;90.33;65.67;56.33
62599;PMS7003;48671;48.922;2.346;2023-04-19T02:23:16;91.33;68.33;60.33
62599;PMS7003;48671;48.922;2.346;2023-04-19T02:25:41;87.00;64.33;52.00
62599;PMS7003;48671;48.922;2.346;2023-04-19T02:28:06;76.33;54.33;38.67
62599;PMS7003;48671;48.922;2.346;2023-04-19T02:30:31;90.33;66.33;56.00
62599;PMS7003;48671;48.922;2.346;2023-04-19T02:32:57;92.67;69.67;58.67
62599;PMS7003;48671;48.922;2.346;2023-04-19T02:35:22;88.33;64.67;55.33
62599;PMS7003;48671;48.922;2.346;2023-04-19T02:37:48;86.00;63.00;53.00
62599;PMS7003;48671;48.922;2.346;2023-04-19T02:40:13;98.67;82.67;72.33
62599;PMS7003;48671;48.922;2.346;2023-04-19T02:42:38;91.67;69.67;57.33
62599;PMS7003;48671;48.922;2.346;2023-04-19T02:45:04;92.33;70.00;57.33
62599;PMS7003;48671;48.922;2.346;2023-04-19T02:47:30;92.33;67.33;57.67
62599;PMS7003;48671;48.922;2.346;2023-04-19T02:49:55;91.00;67.67;54.33
62599;PMS7003;48671;48.922;2.346;2023-04-19T02:52:20;87.00;63.00;50.67
62599;PMS7003;48671;48.922;2.346;2023-04-19T02:54:47;91.33;67.00;55.33
62599;PMS7003;48671;48.922;2.346;2023-04-19T02:57:12;89.67;66.33;57.33
62599;PMS7003;48671;48.922;2.346;2023-04-19T02:59:37;96.33;78.00;67.00
62599;PMS7003;48671;48.922;2.346;2023-04-19T03:02:02;87.00;63.67;53.00
62599;PMS7003;48671;48.922;2.346;2023-04-19T03:04:28;92.00;70.67;59.33
62599;PMS7003;48671;48.922;2.346;2023-04-19T03:06:55;95.67;76.00;66.33
62599;PMS7003;48671;48.922;2.346;2023-04-19T03:09:20;91.00;65.33;56.67
62599;PMS7003;48671;48.922;2.346;2023-04-19T03:11:45;88.67;67.33;57.33
62599;PMS7003;48671;48.922;2.346;2023-04-19T03:14:11;89.33;65.33;56.00
62599;PMS7003;48671;48.922;2.346;2023-04-19T03:16:36;88.67;64.33;50.67
62599;PMS7003;48671;48.922;2.346;2023-04-19T03:19:02;92.67;68.00;59.00
62599;PMS7003;48671;48.922;2.346;2023-04-19T03:21:27;88.67;64.33;54.00
62599;PMS7003;48671;48.922;2.346;2023-04-19T03:23:53;89.00;64.00;49.67
62599;PMS7003;48671;48.922;2.346;2023-04-19T03:26:19;94.00;69.33;58.33
62599;PMS7003;48671;48.922;2.346;2023-04-19T03:28:44;91.00;66.00;55.00
62599;PMS7003;48671;48.922;2.346;2023-04-19T03:31:09;89.00;64.67;53.33
62599;PMS7003;48671;48.922;2.346;2023-04-19T03:33:35;93.00;65.00;52.00
62599;PMS7003;48671;48.922;2.346;2023-04-19T03:36:00;90.00;65.67;54.00
62599;PMS7003;48671;48.922;2.346;2023-04-19T03:38:25;85.67;63.33;48.00
62599;PMS7003;48671;48.922;2.346;2023-04-19T03:40:51;89.67;64.00;52.67
62599;PMS7003;48671;48.922;2.346;2023-04-19T03:43:16;87.00;63.67;48.67
62599;PMS7003;48671;48.922;2.346;2023-04-19T03:45:41;87.00;63.00;49.33
62599;PMS7003;48671;48.922;2.346;2023-04-19T03:48:07;93.00;72.00;62.33
62599;PMS7003;48671;48.922;2.346;2023-04-19T03:50:32;90.00;65.00;50.00
62599;PMS7003;48671;48.922;2.346;2023-04-19T03:52:57;89.00;61.67;43.00
62599;PMS7003;48671;48.922;2.346;2023-04-19T03:55:22;95.00;72.00;59.67
62599;PMS7003;48671;48.922;2.346;2023-04-19T03:57:48;86.33;62.33;44.33
62599;PMS7003;48671;48.922;2.346;2023-04-19T04:00:14;86.00;63.67;46.67
62599;PMS7003;48671;48.922;2.346;2023-04-19T04:02:39;99.67;86.00;74.00
62599;PMS7003;48671;48.922;2.346;2023-04-19T04:05:05;88.00;64.00;49.00
62599;PMS7003;48671;48.922;2.346;2023-04-19T04:07:31;87.33;63.00;48.33
62599;PMS7003;48671;48.922;2.346;2023-04-19T04:09:56;95.33;74.33;60.33
62599;PMS7003;48671;48.922;2.346;2023-04-19T04:12:21;101.33;84.33;70.67
62599;PMS7003;48671;48.922;2.346;2023-04-19T04:14:46;78.67;56.00;41.00
62599;PMS7003;48671;48.922;2.346;2023-04-19T04:17:12;85.67;63.33;48.67
62599;PMS7003;48671;48.922;2.346;2023-04-19T04:19:37;89.67;65.00;51.00
62599;PMS7003;48671;48.922;2.346;2023-04-19T04:22:02;94.00;68.67;59.00
62599;PMS7003;48671;48.922;2.346;2023-04-19T04:24:28;89.00;63.33;50.33
62599;PMS7003;48671;48.922;2.346;2023-04-19T04:26:55;94.33;71.33;62.33
62599;PMS7003;48671;48.922;2.346;2023-04-19T04:29:21;87.00;64.00;46.67
62599;PMS7003;48671;48.922;2.346;2023-04-19T04:31:47;89.33;65.67;51.67
62599;PMS7003;48671;48.922;2.346;2023-04-19T04:34:12;88.00;65.33;48.33
62599;PMS7003;48671;48.922;2.346;2023-04-19T04:36:38;86.33;63.33;45.00
62599;PMS7003;48671;48.922;2.346;2023-04-19T04:39:03;92.33;66.00;51.33
62599;PMS7003;48671;48.922;2.346;2023-04-19T04:41:30;88.67;65.00;49.67
62599;PMS7003;48671;48.922;2.346;2023-04-19T04:43:56;88.67;64.67;49.33
62599;PMS7003;48671;48.922;2.346;2023-04-19T04:46:22;84.33;61.00;42.33
62599;PMS7003;48671;48.922;2.346;2023-04-19T04:48:48;89.00;62.67;46.00
62599;PMS7003;48671;48.922;2.346;2023-04-19T04:51:13;87.33;63.67;47.67
62599;PMS7003;48671;48.922;2.346;2023-04-19T04:53:38;87.67;63.00;44.67
62599;PMS7003;48671;48.922;2.346;2023-04-19T04:56:04;98.00;79.33;63.00
62599;PMS7003;48671;48.922;2.346;2023-04-19T04:58:29;89.67;64.67;45.67
62599;PMS7003;48671;48.922;2.346;2023-04-19T05:00:55;87.00;64.00;46.33
62599;PMS7003;48671;48.922;2.346;2023-04-19T05:03:20;95.67;76.67;63.00
62599;PMS7003;48671;48.922;2.346;2023-04-19T05:05:45;89.33;64.33;46.33
62599;PMS7003;48671;48.922;2.346;2023-04-19T05:08:11;98.33;79.67;66.67
62599;PMS7003;48671;48.922;2.346;2023-04-19T05:10:36;95.33;72.33;56.33
62599;PMS7003;48671;48.922;2.346;2023-04-19T05:13:01;84.00;60.33;41.67
62599;PMS7003;48671;48.922;2.346;2023-04-19T05:15:26;86.67;63.00;45.67
62599;PMS7003;48671;48.922;2.346;2023-04-19T05:17:52;87.67;62.00;43.33
62599;PMS7003;48671;48.922;2.346;2023-04-19T05:20:17;85.00;59.33;41.33
62599;PMS7003;48671;48.922;2.346;2023-04-19T05:22:43;92.33;70.00;55.33
62599;PMS7003;48671;48.922;2.346;2023-04-19T05:25:08;95.33;73.33;60.67
62599;PMS7003;48671;48.922;2.346;2023-04-19T05:27:34;82.33;58.33;39.67
62599;PMS7003;48671;48.922;2.346;2023-04-19T05:29:59;90.33;65.33;46.67
62599;PMS7003;48671;48.922;2.346;2023-04-19T05:32:25;89.33;66.00;49.67
62599;PMS7003;48671;48.922;2.346;2023-04-19T05:34:51;92.67;70.00;55.00
62599;PMS7003;48671;48.922;2.346;2023-04-19T05:37:16;98.67;80.67;65.33
62599;PMS7003;48671;48.922;2.346;2023-04-19T05:39:42;87.67;64.00;43.33
62599;PMS7003;48671;48.922;2.346;2023-04-19T05:42:07;96.33;77.67;60.67
62599;PMS7003;48671;48.922;2.346;2023-04-19T05:44:32;95.00;69.67;52.33
62599;PMS7003;48671;48.922;2.346;2023-04-19T05:46:58;96.67;73.33;57.67
62599;PMS7003;48671;48.922;2.346;2023-04-19T05:49:23;95.33;72.33;55.33
62599;PMS7003;48671;48.922;2.346;2023-04-19T05:51:48;95.33;72.67;53.67
62599;PMS7003;48671;48.922;2.346;2023-04-19T05:54:14;97.33;74.67;57.00
62599;PMS7003;48671;48.922;2.346;2023-04-19T05:56:39;95.00;73.67;55.33
62599;PMS7003;48671;48.922;2.346;2023-04-19T05:59:05;99.33;81.67;66.00
62599;PMS7003;48671;48.922;2.346;2023-04-19T06:01:30;98.33;76.33;57.33
62599;PMS7003;48671;48.922;2.346;2023-04-19T06:03:56;92.67;68.33;50.33
62599;PMS7003;48671;48.922;2.346;2023-04-19T06:06:21;104.00;86.00;71.33
62599;PMS7003;48671;48.922;2.346;2023-04-19T06:08:47;85.33;62.33;42.33
62599;PMS7003;48671;48.922;2.346;2023-04-19T06:11:13;98.00;80.50;63.00
62599;PMS7003;48671;48.922;2.346;2023-04-19T06:13:38;99.33;81.33;65.33
62599;PMS7003;48671;48.922;2.346;2023-04-19T06:16:03;102.00;85.33;65.67
62599;PMS7003;48671;48.922;2.346;2023-04-19T06:18:29;87.67;64.00;44.33
62599;PMS7003;48671;48.922;2.346;2023-04-19T06:20:55;84.67;63.00;43.33
62599;PMS7003;48671;48.922;2.346;2023-04-19T06:23:21;98.67;83.67;61.67
62599;PMS7003;48671;48.922;2.346;2023-04-19T06:25:46;94.00;80.33;59.33
62599;PMS7003;48671;48.922;2.346;2023-04-19T06:28:12;100.33;82.67;66.67
62599;PMS7003;48671;48.922;2.346;2023-04-19T06:30:38;97.67;75.67;57.00
62599;PMS7003;48671;48.922;2.346;2023-04-19T06:33:03;79.50;57.25;35.50
62599;PMS7003;48671;48.922;2.346;2023-04-19T06:35:28;97.33;81.00;62.33
62599;PMS7003;48671;48.922;2.346;2023-04-19T06:37:54;81.75;57.25;35.00
62599;PMS7003;48671;48.922;2.346;2023-04-19T06:40:19;98.00;76.25;55.00
62599;PMS7003;48671;48.922;2.346;2023-04-19T06:42:44;84.33;59.33;38.67
62599;PMS7003;48671;48.922;2.346;2023-04-19T06:45:10;98.50;78.50;58.50
62599;PMS7003;48671;48.922;2.346;2023-04-19T06:47:35;92.67;66.00;44.00
62599;PMS7003;48671;48.922;2.346;2023-04-19T06:50:01;101.00;82.75;61.50
62599;PMS7003;48671;48.922;2.346;2023-04-19T06:52:27;87.50;64.75;45.25
62599;PMS7003;48671;48.922;2.346;2023-04-19T06:54:52;94.50;73.00;48.75
62599;PMS7003;48671;48.922;2.346;2023-04-19T06:57:18;96.25;81.75;61.25
62599;PMS7003;48671;48.922;2.346;2023-04-19T06:59:43;102.33;87.67;68.33
62599;PMS7003;48671;48.922;2.346;2023-04-19T07:02:09;86.00;61.00;39.67
62599;PMS7003;48671;48.922;2.346;2023-04-19T07:04:35;104.33;86.33;65.00
62599;PMS7003;48671;48.922;2.346;2023-04-19T07:07:01;99.40;80.00;56.40
62599;PMS7003;48671;48.922;2.346;2023-04-19T07:09:26;106.50;84.25;62.50
62599;PMS7003;48671;48.922;2.346;2023-04-19T07:11:52;96.50;79.50;55.75
62599;PMS7003;48671;48.922;2.346;2023-04-19T07:14:17;100.50;80.00;56.00
62599;PMS7003;48671;48.922;2.346;2023-04-19T07:16:46;102.00;85.75;65.00
62599;PMS7003;48671;48.922;2.346;2023-04-19T07:19:12;108.67;91.67;69.33
62599;PMS7003;48671;48.922;2.346;2023-04-19T07:21:37;87.40;61.60;38.60
62599;PMS7003;48671;48.922;2.346;2023-04-19T07:24:04;94.25;75.00;56.25
62599;PMS7003;48671;48.922;2.346;2023-04-19T07:26:30;86.20;61.80;38.40
62599;PMS7003;48671;48.922;2.346;2023-04-19T07:28:56;102.00;84.25;57.50
62599;PMS7003;48671;48.922;2.346;2023-04-19T07:31:22;96.50;79.25;56.50
62599;PMS7003;48671;48.922;2.346;2023-04-19T07:33:48;79.60;56.00;32.60
62599;PMS7003;48671;48.922;2.346;2023-04-19T07:36:14;102.00;83.75;59.75
62599;PMS7003;48671;48.922;2.346;2023-04-19T07:38:39;85.33;61.67;38.00
62599;PMS7003;48671;48.922;2.346;2023-04-19T07:41:04;94.00;74.75;53.25
62599;PMS7003;48671;48.922;2.346;2023-04-19T07:43:30;94.67;76.33;50.33
62599;PMS7003;48671;48.922;2.346;2023-04-19T07:45:55;96.67;77.33;56.33
62599;PMS7003;48671;48.922;2.346;2023-04-19T07:48:20;102.75;88.50;55.75
62599;PMS7003;48671;48.922;2.346;2023-04-19T07:50:46;102.50;85.75;60.00
62599;PMS7003;48671;48.922;2.346;2023-04-19T07:53:11;92.25;72.00;45.50
62599;PMS7003;48671;48.922;2.346;2023-04-19T07:55:36;95.50;74.25;53.00
62599;PMS7003;48671;48.922;2.346;2023-04-19T07:58:02;93.25;74.75;50.25
62599;PMS7003;48671;48.922;2.346;2023-04-19T08:00:27;86.00;61.75;38.50
62599;PMS7003;48671;48.922;2.346;2023-04-19T08:02:54;82.67;60.67;35.33
62599;PMS7003;48671;48.922;2.346;2023-04-19T08:05:20;96.25;79.00;53.75
62599;PMS7003;48671;48.922;2.346;2023-04-19T08:07:47;93.25;76.50;49.00
62599;PMS7003;48671;48.922;2.346;2023-04-19T08:10:14;102.00;85.75;63.75
62599;PMS7003;48671;48.922;2.346;2023-04-19T08:12:39;79.00;57.50;36.50
62599;PMS7003;48671;48.922;2.346;2023-04-19T08:15:06;102.33;83.33;56.67
62599;PMS7003;48671;48.922;2.346;2023-04-19T08:17:32;94.25;78.75;50.00
62599;PMS7003;48671;48.922;2.346;2023-04-19T08:19:58;64.50;42.75;10.00
62599;PMS7003;48671;48.922;2.346;2023-04-19T08:22:23;89.00;73.00;44.50
62599;PMS7003;48671;48.922;2.346;2023-04-19T08:24:49;81.00;64.50;41.25
62599;PMS7003;48671;48.922;2.346;2023-04-19T08:27:18;81.40;65.80;40.00
62599;PMS7003;48671;48.922;2.346;2023-04-19T08:29:44;83.25;68.75;41.75
62599;PMS7003;48671;48.922;2.346;2023-04-19T08:32:10;82.00;66.75;39.75
62599;PMS7003;48671;48.922;2.346;2023-04-19T08:34:37;90.40;73.80;45.20
62599;PMS7003;48671;48.922;2.346;2023-04-19T08:37:04;82.80;68.60;48.60
62599;PMS7003;48671;48.922;2.346;2023-04-19T08:39:30;83.40;68.00;41.40
62599;PMS7003;48671;48.922;2.346;2023-04-19T08:41:56;81.40;63.40;38.60
62599;PMS7003;48671;48.922;2.346;2023-04-19T08:44:30;86.80;71.80;43.40
62599;PMS7003;48671;48.922;2.346;2023-04-19T08:47:00;73.00;51.80;25.00
62599;PMS7003;48671;48.922;2.346;2023-04-19T08:49:28;56.80;38.00;8.60
62599;PMS7003;48671;48.922;2.346;2023-04-19T08:51:58;97.60;82.20;48.40
62599;PMS7003;48671;48.922;2.346;2023-04-19T08:54:25;89.40;74.00;42.60
62599;PMS7003;48671;48.922;2.346;2023-04-19T08:56:53;88.25;75.25;40.00
62599;PMS7003;48671;48.922;2.346;2023-04-19T08:59:19;80.50;58.75;35.00
62599;PMS7003;48671;48.922;2.346;2023-04-19T09:01:44;106.00;81.25;36.00
62599;PMS7003;48671;48.922;2.346;2023-04-19T09:04:10;86.25;65.25;25.50
62599;PMS7003;48671;48.922;2.346;2023-04-19T09:06:35;89.00;73.50;41.50
62599;PMS7003;48671;48.922;2.346;2023-04-19T09:11:47;114.50;100.25;69.25
62599;PMS7003;48671;48.922;2.346;2023-04-19T09:14:13;92.00;78.00;50.75
62599;PMS7003;48671;48.922;2.346;2023-04-19T09:16:41;59.80;41.20;14.20
62599;PMS7003;48671;48.922;2.346;2023-04-19T09:19:07;73.00;57.50;34.25
62599;PMS7003;48671;48.922;2.346;2023-04-19T09:21:33;94.80;80.40;56.80
62599;PMS7003;48671;48.922;2.346;2023-04-19T09:23:59;85.80;67.00;40.60
62599;PMS7003;48671;48.922;2.346;2023-04-19T09:26:26;97.25;80.75;54.00
62599;PMS7003;48671;48.922;2.346;2023-04-19T09:29:00;85.80;68.00;40.80
62599;PMS7003;48671;48.922;2.346;2023-04-19T09:31:31;87.00;67.80;40.00
62599;PMS7003;48671;48.922;2.346;2023-04-19T09:34:13;78.60;57.60;35.40
62599;PMS7003;48671;48.922;2.346;2023-04-19T09:36:39;85.20;63.00;39.60
62599;PMS7003;48671;48.922;2.346;2023-04-19T09:39:05;85.75;69.25;42.50
62599;PMS7003;48671;48.922;2.346;2023-04-19T09:41:31;84.25;65.25;38.25
62599;PMS7003;48671;48.922;2.346;2023-04-19T09:44:10;86.80;69.60;40.60
62599;PMS7003;48671;48.922;2.346;2023-04-19T09:46:39;85.60;67.40;38.40
62599;PMS7003;48671;48.922;2.346;2023-04-19T09:51:41;84.60;66.80;38.60
62599;PMS7003;48671;48.922;2.346;2023-04-19T09:54:08;94.20;77.80;49.40
62599;PMS7003;48671;48.922;2.346;2023-04-19T09:56:35;83.00;64.80;35.40
62599;PMS7003;48671;48.922;2.346;2023-04-19T09:59:04;85.40;69.80;39.20
62599;PMS7003;48671;48.922;2.346;2023-04-19T10:01:43;99.00;83.60;57.60
62599;PMS7003;48671;48.922;2.346;2023-04-19T10:04:11;80.00;57.80;32.40
62599;PMS7003;48671;48.922;2.346;2023-04-19T10:06:46;86.40;72.80;41.20
62599;PMS7003;48671;48.922;2.346;2023-04-19T10:09:16;87.20;72.80;43.40
62599;PMS7003;48671;48.922;2.346;2023-04-19T10:11:43;77.80;57.80;35.60
62599;PMS7003;48671;48.922;2.346;2023-04-19T10:14:13;80.00;59.60;37.00
62599;PMS7003;48671;48.922;2.346;2023-04-19T10:16:40;82.40;63.40;37.20
62599;PMS7003;48671;48.922;2.346;2023-04-19T10:19:07;82.00;64.25;38.00
62599;PMS7003;48671;48.922;2.346;2023-04-19T10:21:34;82.40;64.40;43.00
62599;PMS7003;48671;48.922;2.346;2023-04-19T10:24:01;76.40;55.60;33.00
62599;PMS7003;48671;48.922;2.346;2023-04-19T10:26:28;78.60;58.20;35.80
62599;PMS7003;48671;48.922;2.346;2023-04-19T10:28:54;76.25;56.00;35.50
62599;PMS7003;48671;48.922;2.346;2023-04-19T10:31:23;88.20;73.20;61.20
62599;PMS7003;48671;48.922;2.346;2023-04-19T10:33:50;83.20;68.00;49.00
62599;PMS7003;48671;48.922;2.346;2023-04-19T10:36:16;78.25;58.00;38.75
62599;PMS7003;48671;48.922;2.346;2023-04-19T10:38:46;67.80;48.20;32.00
62599;PMS7003;48671;48.922;2.346;2023-04-19T10:41:13;74.50;54.75;37.50
62599;PMS7003;48671;48.922;2.346;2023-04-19T10:43:39;91.00;78.20;69.40
62599;PMS7003;48671;48.922;2.346;2023-04-19T10:48:33;72.00;51.75;37.00
62599;PMS7003;48671;48.922;2.346;2023-04-19T10:56:46;76.40;56.40;46.00
62599;PMS7003;48671;48.922;2.346;2023-04-19T10:59:23;76.00;55.50;45.00
62599;PMS7003;48671;48.922;2.346;2023-04-19T11:01:50;73.00;59.25;49.25
62599;PMS7003;48671;48.922;2.346;2023-04-19T11:07:00;79.50;62.00;51.50
62599;PMS7003;48671;48.922;2.346;2023-04-19T11:12:05;71.60;53.40;39.80
62599;PMS7003;48671;48.922;2.346;2023-04-19T11:14:36;65.00;47.00;32.00
62599;PMS7003;48671;48.922;2.346;2023-04-19T11:19:43;81.50;73.00;67.00
62599;PMS7003;48671;48.922;2.346;2023-04-19T11:22:16;78.00;57.75;50.25
62599;PMS7003;48671;48.922;2.346;2023-04-19T11:24:44;81.25;62.50;50.75
62599;PMS7003;48671;48.922;2.346;2023-04-19T11:27:11;81.40;65.40;53.40
62599;PMS7003;48671;48.922;2.346;2023-04-19T11:29:36;65.00;44.50;30.50
62599;PMS7003;48671;48.922;2.346;2023-04-19T11:32:02;76.75;66.50;57.25
62599;PMS7003;48671;48.922;2.346;2023-04-19T11:34:28;64.20;46.40;34.00
62599;PMS7003;48671;48.922;2.346;2023-04-19T11:36:54;68.00;49.50;37.00
62599;PMS7003;48671;48.922;2.346;2023-04-19T11:39:19;81.25;66.25;56.00
62599;PMS7003;48671;48.922;2.346;2023-04-19T11:41:45;74.00;55.20;45.80
62599;PMS7003;48671;48.922;2.346;2023-04-19T11:44:17;67.75;49.25;35.25
62599;PMS7003;48671;48.922;2.346;2023-04-19T11:46:56;68.40;49.00;36.20
62599;PMS7003;48671;48.922;2.346;2023-04-19T11:49:30;63.75;52.50;37.25
62599;PMS7003;48671;48.922;2.346;2023-04-19T11:52:00;66.50;53.75;48.50
62599;PMS7003;48671;48.922;2.346;2023-04-19T11:54:27;71.40;58.80;53.60
62599;PMS7003;48671;48.922;2.346;2023-04-19T11:56:56;69.25;50.00;34.75
62599;PMS7003;48671;48.922;2.346;2023-04-19T11:59:29;59.20;48.80;37.00
62599;PMS7003;48671;48.922;2.346;2023-04-19T12:02:08;64.00;52.75;42.50
62599;PMS7003;48671;48.922;2.346;2023-04-19T12:04:34;69.60;51.40;39.80
62599;PMS7003;48671;48.922;2.346;2023-04-19T12:07:00;65.75;53.50;44.00
62599;PMS7003;48671;48.922;2.346;2023-04-19T12:09:27;58.75;48.25;37.00
62599;PMS7003;48671;48.922;2.346;2023-04-19T12:11:52;74.33;55.67;50.67
62599;PMS7003;48671;48.922;2.346;2023-04-19T12:14:18;64.75;48.00;36.75
62599;PMS7003;48671;48.922;2.346;2023-04-19T12:17:02;70.20;58.80;56.60
62599;PMS7003;48671;48.922;2.346;2023-04-19T12:19:36;59.75;45.25;33.50
62599;PMS7003;48671;48.922;2.346;2023-04-19T12:22:12;75.50;69.00;66.00
62599;PMS7003;48671;48.922;2.346;2023-04-19T12:24:39;67.33;54.67;50.33
62599;PMS7003;48671;48.922;2.346;2023-04-19T12:27:05;70.80;52.40;38.80
62599;PMS7003;48671;48.922;2.346;2023-04-19T12:29:31;37.00;33.80;26.00
62599;PMS7003;48671;48.922;2.346;2023-04-19T12:31:57;66.00;53.00;49.67
62599;PMS7003;48671;48.922;2.346;2023-04-19T12:34:23;58.67;48.00;40.00
62599;PMS7003;48671;48.922;2.346;2023-04-19T12:36:49;55.50;46.00;35.50
62599;PMS7003;48671;48.922;2.346;2023-04-19T12:39:14;50.67;42.67;34.00
62599;PMS7003;48671;48.922;2.346;2023-04-19T12:41:40;61.00;49.67;41.67
62599;PMS7003;48671;48.922;2.346;2023-04-19T12:44:05;61.00;50.00;44.50
62599;PMS7003;48671;48.922;2.346;2023-04-19T12:46:30;64.00;51.50;43.25
62599;PMS7003;48671;48.922;2.346;2023-04-19T12:48:55;62.00;51.33;45.00
62599;PMS7003;48671;48.922;2.346;2023-04-19T12:51:21;64.50;52.50;49.00
62599;PMS7003;48671;48.922;2.346;2023-04-19T12:53:47;64.50;52.75;47.00
62599;PMS7003;48671;48.922;2.346;2023-04-19T12:56:13;66.00;54.33;52.67
62599;PMS7003;48671;48.922;2.346;2023-04-19T12:58:39;67.00;56.25;53.50
62599;PMS7003;48671;48.922;2.346;2023-04-19T13:01:05;55.67;46.67;37.33
62599;PMS7003;48671;48.922;2.346;2023-04-19T13:03:31;62.00;51.00;45.25
62599;PMS7003;48671;48.922;2.346;2023-04-19T13:06:00;68.75;58.00;56.25
62599;PMS7003;48671;48.922;2.346;2023-04-19T13:08:25;67.50;57.25;55.00
62599;PMS7003;48671;48.922;2.346;2023-04-19T13:10:51;71.00;63.00;59.75
62599;PMS7003;48671;48.922;2.346;2023-04-19T13:13:16;69.00;59.25;57.25
62599;PMS7003;48671;48.922;2.346;2023-04-19T13:15:41;58.50;48.50;42.00
62599;PMS7003;48671;48.922;2.346;2023-04-19T13:18:07;62.25;51.50;43.50
62599;PMS7003;48671;48.922;2.346;2023-04-19T13:20:32;58.25;47.25;35.00
62599;PMS7003;48671;48.922;2.346;2023-04-19T13:22:57;66.50;54.50;51.25
62599;PMS7003;48671;48.922;2.346;2023-04-19T13:25:23;62.25;51.00;44.75
62599;PMS7003;48671;48.922;2.346;2023-04-19T13:27:48;49.00;41.75;25.25
62599;PMS7003;48671;48.922;2.346;2023-04-19T13:30:14;62.00;51.00;43.75
62599;PMS7003;48671;48.922;2.346;2023-04-19T13:32:39;68.50;57.50;54.75
62599;PMS7003;48671;48.922;2.346;2023-04-19T13:35:05;57.50;47.50;37.75
62599;PMS7003;48671;48.922;2.346;2023-04-19T13:37:30;73.00;66.00;63.00
62599;PMS7003;48671;48.922;2.346;2023-04-19T13:39:55;71.25;63.75;61.25
62599;PMS7003;48671;48.922;2.346;2023-04-19T13:42:21;70.00;61.00;59.00
62599;PMS7003;48671;48.922;2.346;2023-04-19T13:44:47;50.80;43.00;33.40
62599;PMS7003;48671;48.922;2.346;2023-04-19T13:47:12;61.50;50.25;45.00
62599;PMS7003;48671;48.922;2.346;2023-04-19T13:49:38;70.67;63.00;59.67
62599;PMS7003;48671;48.922;2.346;2023-04-19T13:52:03;52.00;44.00;37.00
62599;PMS7003;48671;48.922;2.346;2023-04-19T13:54:28;66.25;51.00;46.75
62599;PMS7003;48671;48.922;2.346;2023-04-19T13:56:54;58.75;48.25;42.00
62599;PMS7003;48671;48.922;2.346;2023-04-19T13:59:20;66.25;56.00;53.50
62599;PMS7003;48671;48.922;2.346;2023-04-19T14:01:45;66.25;55.00;53.00